Terminal Aerodrome Forecast
Issued by NWS

Home | Current Version | Previous Version | Text Only | Print | Product List | Glossary On
Versions: 1 2 3 4 5 6 7 8 9 10 11 12 13 14 15 16 17 18 19
000
FTUS41 KPBZ 210520
TAFHLG
TAF
KHLG 210520Z 2106/2206 19012KT P6SM BKN250 WS020/23045KT
     FM211400 22012G22KT P6SM VCSH BKN040
     FM211700 30012G22KT P6SM -SHRA OVC015
     FM211900 30010G20KT 5SM -SHRA OVC008
     FM212200 34010KT 5SM -SHRA OVC015=

USA.gov is the U.S. government's official web portal to all federal, state and local government web resources and services.